sensor_id;sensor_type;location;lat;lon;timestamp;pressure;altitude;pressure_sealevel;temperature;humidity
51227;BME280;42714;48.260;10.980;2024-03-02T00:03:36;960.0;;;6.2;100.0
51227;BME280;42714;48.260;10.980;2024-03-02T00:08:36;959.9;;;6.2;100.0
51227;BME280;42714;48.260;10.980;2024-03-02T00:13:37;960.0;;;6.1;100.0
51227;BME280;42714;48.260;10.980;2024-03-02T00:18:38;960.0;;;6.0;100.0
51227;BME280;42714;48.260;10.980;2024-03-02T00:23:39;960.0;;;6.0;100.0
51227;BME280;42714;48.260;10.980;2024-03-02T00:28:40;960.0;;;6.0;100.0
51227;BME280;42714;48.260;10.980;2024-03-02T00:33:43;960.0;;;6.0;100.0
51227;BME280;42714;48.260;10.980;2024-03-02T00:38:46;960.0;;;5.9;100.0
51227;BME280;42714;48.260;10.980;2024-03-02T00:43:45;960.0;;;6.0;100.0
51227;BME280;42714;48.260;10.980;2024-03-02T00:48:47;960.0;;;5.9;100.0
51227;BME280;42714;48.260;10.980;2024-03-02T00:53:45;960.0;;;6.0;100.0
51227;BME280;42714;48.260;10.980;2024-03-02T00:58:46;960.0;;;5.9;100.0
51227;BME280;42714;48.260;10.980;2024-03-02T01:03:48;960.0;;;5.9;100.0
51227;BME280;42714;48.260;10.980;2024-03-02T01:08:48;960.1;;;5.8;100.0
51227;BME280;42714;48.260;10.980;2024-03-02T01:13:50;960.1;;;5.8;100.0
51227;BME280;42714;48.260;10.980;2024-03-02T01:18:50;960.2;;;5.9;100.0
51227;BME280;42714;48.260;10.980;2024-03-02T01:23:51;960.2;;;5.9;100.0
51227;BME280;42714;48.260;10.980;2024-03-02T01:28:52;960.1;;;5.9;100.0
51227;BME280;42714;48.260;10.980;2024-03-02T01:33:53;960.0;;;5.9;100.0
51227;BME280;42714;48.260;10.980;2024-03-02T01:38:54;960.0;;;5.9;100.0
51227;BME280;42714;48.260;10.980;2024-03-02T01:43:55;959.9;;;5.9;100.0
51227;BME280;42714;48.260;10.980;2024-03-02T01:48:56;960.0;;;5.8;100.0
51227;BME280;42714;48.260;10.980;2024-03-02T01:53:57;959.9;;;5.8;100.0
51227;BME280;42714;48.260;10.980;2024-03-02T01:58:58;959.9;;;5.8;100.0
51227;BME280;42714;48.260;10.980;2024-03-02T02:03:59;959.8;;;5.8;100.0
51227;BME280;42714;48.260;10.980;2024-03-02T02:14:01;959.7;;;5.8;100.0
51227;BME280;42714;48.260;10.980;2024-03-02T02:19:02;959.7;;;5.8;100.0
51227;BME280;42714;48.260;10.980;2024-03-02T02:24:04;959.7;;;5.8;100.0
51227;BME280;42714;48.260;10.980;2024-03-02T02:29:04;959.8;;;5.9;100.0
51227;BME280;42714;48.260;10.980;2024-03-02T02:34:05;959.8;;;6.0;100.0
51227;BME280;42714;48.260;10.980;2024-03-02T02:39:07;959.8;;;5.9;100.0
51227;BME280;42714;48.260;10.980;2024-03-02T02:44:07;959.7;;;5.8;100.0
51227;BME280;42714;48.260;10.980;2024-03-02T02:49:08;959.8;;;5.9;100.0
51227;BME280;42714;48.260;10.980;2024-03-02T02:54:09;959.7;;;5.9;100.0
51227;BME280;42714;48.260;10.980;2024-03-02T02:59:10;959.7;;;5.9;100.0
51227;BME280;42714;48.260;10.980;2024-03-02T03:04:11;959.6;;;5.9;100.0
51227;BME280;42714;48.260;10.980;2024-03-02T03:09:12;959.6;;;5.9;100.0
51227;BME280;42714;48.260;10.980;2024-03-02T03:14:13;959.7;;;5.8;100.0
51227;BME280;42714;48.260;10.980;2024-03-02T03:19:14;959.7;;;5.8;100.0
51227;BME280;42714;48.260;10.980;2024-03-02T03:24:15;959.8;;;5.8;100.0
51227;BME280;42714;48.260;10.980;2024-03-02T03:29:16;959.9;;;5.8;100.0
51227;BME280;42714;48.260;10.980;2024-03-02T03:34:17;960.0;;;5.8;100.0
51227;BME280;42714;48.260;10.980;2024-03-02T03:39:18;959.9;;;5.8;100.0
51227;BME280;42714;48.260;10.980;2024-03-02T03:44:20;960.1;;;5.8;100.0
51227;BME280;42714;48.260;10.980;2024-03-02T03:49:20;960.1;;;5.8;100.0
51227;BME280;42714;48.260;10.980;2024-03-02T03:54:21;960.1;;;5.8;100.0
51227;BME280;42714;48.260;10.980;2024-03-02T03:59:22;960.2;;;5.9;100.0
51227;BME280;42714;48.260;10.980;2024-03-02T04:04:24;960.1;;;5.9;100.0
51227;BME280;42714;48.260;10.980;2024-03-02T04:09:25;960.1;;;5.9;100.0
51227;BME280;42714;48.260;10.980;2024-03-02T04:14:26;960.2;;;5.9;100.0
51227;BME280;42714;48.260;10.980;2024-03-02T04:19:27;960.2;;;6.0;100.0
51227;BME280;42714;48.260;10.980;2024-03-02T04:24:28;960.3;;;6.0;100.0
51227;BME280;42714;48.260;10.980;2024-03-02T04:29:29;960.3;;;6.0;100.0
51227;BME280;42714;48.260;10.980;2024-03-02T04:34:30;960.3;;;6.0;100.0
51227;BME280;42714;48.260;10.980;2024-03-02T04:39:31;960.4;;;6.0;100.0
51227;BME280;42714;48.260;10.980;2024-03-02T04:44:32;960.4;;;5.9;100.0
51227;BME280;42714;48.260;10.980;2024-03-02T04:49:33;960.4;;;5.9;100.0
51227;BME280;42714;48.260;10.980;2024-03-02T04:54:34;960.4;;;5.9;100.0
51227;BME280;42714;48.260;10.980;2024-03-02T04:59:35;960.5;;;5.9;100.0
51227;BME280;42714;48.260;10.980;2024-03-02T05:04:36;960.5;;;5.9;100.0
51227;BME280;42714;48.260;10.980;2024-03-02T05:09:37;960.6;;;5.9;100.0
51227;BME280;42714;48.260;10.980;2024-03-02T05:14:38;960.6;;;5.8;100.0
51227;BME280;42714;48.260;10.980;2024-03-02T05:19:39;960.6;;;5.6;100.0
51227;BME280;42714;48.260;10.980;2024-03-02T05:24:40;960.6;;;5.5;100.0
51227;BME280;42714;48.260;10.980;2024-03-02T05:29:41;960.6;;;5.4;100.0
51227;BME280;42714;48.260;10.980;2024-03-02T05:34:42;960.6;;;5.3;100.0
51227;BME280;42714;48.260;10.980;2024-03-02T05:39:43;960.6;;;5.3;100.0
51227;BME280;42714;48.260;10.980;2024-03-02T05:44:44;960.6;;;5.1;100.0
51227;BME280;42714;48.260;10.980;2024-03-02T05:49:45;960.6;;;5.0;100.0
51227;BME280;42714;48.260;10.980;2024-03-02T05:54:46;960.5;;;4.9;100.0
51227;BME280;42714;48.260;10.980;2024-03-02T05:59:47;960.5;;;4.8;100.0
51227;BME280;42714;48.260;10.980;2024-03-02T06:04:48;960.5;;;4.7;100.0
51227;BME280;42714;48.260;10.980;2024-03-02T06:09:49;960.5;;;4.7;100.0
51227;BME280;42714;48.260;10.980;2024-03-02T06:14:50;960.4;;;4.6;100.0
51227;BME280;42714;48.260;10.980;2024-03-02T06:19:51;960.5;;;4.5;100.0
51227;BME280;42714;48.260;10.980;2024-03-02T06:24:52;960.5;;;4.5;100.0
51227;BME280;42714;48.260;10.980;2024-03-02T06:29:53;960.5;;;4.4;100.0
51227;BME280;42714;48.260;10.980;2024-03-02T06:34:54;960.5;;;4.4;100.0
51227;BME280;42714;48.260;10.980;2024-03-02T06:39:55;960.5;;;4.5;100.0
51227;BME280;42714;48.260;10.980;2024-03-02T06:44:56;960.5;;;4.7;100.0
51227;BME280;42714;48.260;10.980;2024-03-02T06:49:57;960.4;;;5.3;100.0
51227;BME280;42714;48.260;10.980;2024-03-02T06:54:58;960.4;;;6.6;100.0
51227;BME280;42714;48.260;10.980;2024-03-02T06:59:59;960.4;;;7.9;100.0
51227;BME280;42714;48.260;10.980;2024-03-02T07:05:00;960.3;;;9.2;100.0
51227;BME280;42714;48.260;10.980;2024-03-02T07:10:01;960.3;;;10.3;95.2
51227;BME280;42714;48.260;10.980;2024-03-02T07:15:02;960.3;;;11.3;82.3
51227;BME280;42714;48.260;10.980;2024-03-02T07:20:03;960.3;;;12.1;73.9
51227;BME280;42714;48.260;10.980;2024-03-02T07:35:06;960.3;;;14.6;60.2
51227;BME280;42714;48.260;10.980;2024-03-02T07:40:07;960.4;;;14.6;59.3
51227;BME280;42714;48.260;10.980;2024-03-02T07:45:08;960.4;;;13.8;59.1
51227;BME280;42714;48.260;10.980;2024-03-02T07:50:09;960.5;;;13.2;62.2
51227;BME280;42714;48.260;10.980;2024-03-02T07:55:10;960.5;;;12.9;62.8
51227;BME280;42714;48.260;10.980;2024-03-02T08:00:11;960.5;;;12.8;64.1
51227;BME280;42714;48.260;10.980;2024-03-02T08:05:12;960.5;;;13.3;62.2
51227;BME280;42714;48.260;10.980;2024-03-02T08:10:13;960.5;;;14.1;60.4
51227;BME280;42714;48.260;10.980;2024-03-02T08:15:14;960.4;;;14.3;58.7
51227;BME280;42714;48.260;10.980;2024-03-02T08:20:15;960.5;;;14.1;58.5
51227;BME280;42714;48.260;10.980;2024-03-02T08:25:16;960.5;;;13.6;59.0
51227;BME280;42714;48.260;10.980;2024-03-02T08:30:17;960.5;;;13.4;61.2
51227;BME280;42714;48.260;10.980;2024-03-02T08:35:18;960.5;;;12.9;61.5
51227;BME280;42714;48.260;10.980;2024-03-02T08:40:19;960.6;;;12.4;62.6
51227;BME280;42714;48.260;10.980;2024-03-02T08:45:20;960.5;;;12.3;65.7
51227;BME280;42714;48.260;10.980;2024-03-02T08:50:21;960.5;;;12.8;63.5
51227;BME280;42714;48.260;10.980;2024-03-02T08:55:22;960.5;;;14.1;61.3
51227;BME280;42714;48.260;10.980;2024-03-02T09:00:23;960.5;;;14.8;57.0
51227;BME280;42714;48.260;10.980;2024-03-02T09:05:24;960.5;;;14.9;55.7
51227;BME280;42714;48.260;10.980;2024-03-02T09:10:25;960.5;;;15.1;55.9
51227;BME280;42714;48.260;10.980;2024-03-02T09:15:26;960.5;;;15.2;54.1
51227;BME280;42714;48.260;10.980;2024-03-02T09:20:27;960.5;;;15.4;53.1
51227;BME280;42714;48.260;10.980;2024-03-02T09:25:28;960.4;;;16.1;51.6
51227;BME280;42714;48.260;10.980;2024-03-02T09:30:29;960.3;;;16.5;48.9
51227;BME280;42714;48.260;10.980;2024-03-02T09:35:30;960.3;;;17.2;47.3
51227;BME280;42714;48.260;10.980;2024-03-02T09:40:31;960.2;;;17.9;45.9
51227;BME280;42714;48.260;10.980;2024-03-02T09:45:32;960.1;;;18.2;44.7
51227;BME280;42714;48.260;10.980;2024-03-02T09:50:33;960.1;;;18.4;45.5
51227;BME280;42714;48.260;10.980;2024-03-02T09:55:34;960.1;;;18.2;45.4
51227;BME280;42714;48.260;10.980;2024-03-02T10:00:35;960.1;;;17.5;47.3
51227;BME280;42714;48.260;10.980;2024-03-02T10:05:36;960.1;;;16.5;50.3
51227;BME280;42714;48.260;10.980;2024-03-02T10:10:38;960.2;;;16.0;52.1
51227;BME280;42714;48.260;10.980;2024-03-02T10:15:39;960.2;;;15.9;52.7
51227;BME280;42714;48.260;10.980;2024-03-02T10:20:39;960.1;;;15.9;54.3
51227;BME280;42714;48.260;10.980;2024-03-02T10:25:40;960.1;;;16.2;51.1
51227;BME280;42714;48.260;10.980;2024-03-02T10:30:41;960.0;;;16.0;52.9
51227;BME280;42714;48.260;10.980;2024-03-02T10:35:42;960.0;;;16.7;51.9
51227;BME280;42714;48.260;10.980;2024-03-02T10:40:46;960.0;;;17.2;50.4
51227;BME280;42714;48.260;10.980;2024-03-02T10:45:44;959.9;;;16.0;52.8
51227;BME280;42714;48.260;10.980;2024-03-02T10:50:45;959.9;;;15.7;53.5
51227;BME280;42714;48.260;10.980;2024-03-02T10:55:46;959.8;;;15.3;54.8
51227;BME280;42714;48.260;10.980;2024-03-02T11:00:47;959.7;;;15.4;54.4
51227;BME280;42714;48.260;10.980;2024-03-02T11:05:48;959.7;;;15.6;53.9
51227;BME280;42714;48.260;10.980;2024-03-02T11:10:50;959.7;;;15.6;53.7
51227;BME280;42714;48.260;10.980;2024-03-02T11:15:51;959.5;;;14.8;54.8
51227;BME280;42714;48.260;10.980;2024-03-02T11:20:51;959.5;;;14.4;57.0
51227;BME280;42714;48.260;10.980;2024-03-02T11:25:52;959.4;;;14.3;56.7
51227;BME280;42714;48.260;10.980;2024-03-02T11:30:53;959.4;;;15.0;56.1
51227;BME280;42714;48.260;10.980;2024-03-02T11:35:54;959.2;;;16.0;53.9
51227;BME280;42714;48.260;10.980;2024-03-02T11:40:55;959.2;;;15.8;54.0
51227;BME280;42714;48.260;10.980;2024-03-02T11:45:57;959.1;;;17.0;52.7
51227;BME280;42714;48.260;10.980;2024-03-02T11:50:57;959.0;;;17.8;48.4
51227;BME280;42714;48.260;10.980;2024-03-02T11:55:58;959.0;;;17.5;47.8
51227;BME280;42714;48.260;10.980;2024-03-02T12:00:59;958.8;;;18.4;45.2
51227;BME280;42714;48.260;10.980;2024-03-02T12:06:00;958.8;;;18.5;45.7
51227;BME280;42714;48.260;10.980;2024-03-02T12:11:01;958.7;;;18.0;47.5
51227;BME280;42714;48.260;10.980;2024-03-02T12:16:02;958.5;;;18.2;48.0
51227;BME280;42714;48.260;10.980;2024-03-02T12:21:03;958.5;;;18.3;45.9
51227;BME280;42714;48.260;10.980;2024-03-02T12:26:04;958.4;;;18.1;46.0
51227;BME280;42714;48.260;10.980;2024-03-02T12:31:05;958.3;;;18.5;46.2
51227;BME280;42714;48.260;10.980;2024-03-02T12:36:09;958.2;;;19.0;44.9
51227;BME280;42714;48.260;10.980;2024-03-02T12:41:07;958.2;;;19.4;43.3
51227;BME280;42714;48.260;10.980;2024-03-02T12:46:08;958.1;;;18.9;44.6
51227;BME280;42714;48.260;10.980;2024-03-02T12:51:09;958.1;;;17.5;48.2
51227;BME280;42714;48.260;10.980;2024-03-02T12:56:10;958.0;;;17.3;49.5
51227;BME280;42714;48.260;10.980;2024-03-02T13:01:14;957.9;;;17.9;47.1
51227;BME280;42714;48.260;10.980;2024-03-02T13:06:12;957.9;;;18.5;45.7
51227;BME280;42714;48.260;10.980;2024-03-02T13:11:13;957.8;;;18.2;45.9
51227;BME280;42714;48.260;10.980;2024-03-02T13:16:14;957.7;;;18.4;46.4
51227;BME280;42714;48.260;10.980;2024-03-02T13:21:15;957.6;;;18.1;46.1
51227;BME280;42714;48.260;10.980;2024-03-02T13:26:16;957.5;;;18.5;46.2
51227;BME280;42714;48.260;10.980;2024-03-02T13:31:17;957.5;;;18.8;46.2
51227;BME280;42714;48.260;10.980;2024-03-02T13:36:18;957.5;;;18.5;46.5
51227;BME280;42714;48.260;10.980;2024-03-02T13:41:19;957.5;;;18.6;46.6
51227;BME280;42714;48.260;10.980;2024-03-02T13:46:20;957.5;;;18.8;45.2
51227;BME280;42714;48.260;10.980;2024-03-02T13:51:21;957.4;;;18.4;46.1
51227;BME280;42714;48.260;10.980;2024-03-02T13:56:22;957.4;;;18.4;46.5
51227;BME280;42714;48.260;10.980;2024-03-02T14:01:23;957.3;;;18.3;46.9
51227;BME280;42714;48.260;10.980;2024-03-02T14:06:24;957.3;;;17.9;46.8
51227;BME280;42714;48.260;10.980;2024-03-02T14:11:25;957.3;;;17.5;48.4
51227;BME280;42714;48.260;10.980;2024-03-02T14:16:26;957.2;;;17.3;48.8
51227;BME280;42714;48.260;10.980;2024-03-02T14:21:27;957.2;;;17.2;49.0
51227;BME280;42714;48.260;10.980;2024-03-02T14:26:28;957.2;;;17.0;49.0
51227;BME280;42714;48.260;10.980;2024-03-02T14:31:29;957.1;;;16.9;49.3
51227;BME280;42714;48.260;10.980;2024-03-02T14:36:30;957.1;;;16.8;49.3
51227;BME280;42714;48.260;10.980;2024-03-02T14:41:31;957.1;;;17.0;49.4
51227;BME280;42714;48.260;10.980;2024-03-02T14:46:32;957.0;;;17.3;48.6
51227;BME280;42714;48.260;10.980;2024-03-02T14:51:33;957.0;;;17.2;48.7
51227;BME280;42714;48.260;10.980;2024-03-02T14:56:34;956.9;;;17.0;48.8
51227;BME280;42714;48.260;10.980;2024-03-02T15:01:35;956.9;;;16.5;50.8
51227;BME280;42714;48.260;10.980;2024-03-02T15:06:36;956.9;;;16.6;50.9
51227;BME280;42714;48.260;10.980;2024-03-02T15:11:37;956.8;;;16.2;51.0
51227;BME280;42714;48.260;10.980;2024-03-02T15:16:38;956.7;;;16.6;50.1
51227;BME280;42714;48.260;10.980;2024-03-02T15:21:39;956.7;;;16.6;49.6
51227;BME280;42714;48.260;10.980;2024-03-02T15:26:40;956.7;;;16.4;49.9
51227;BME280;42714;48.260;10.980;2024-03-02T15:31:41;956.7;;;15.1;53.4
51227;BME280;42714;48.260;10.980;2024-03-02T15:36:42;956.7;;;14.2;56.1
51227;BME280;42714;48.260;10.980;2024-03-02T15:41:43;956.7;;;13.2;59.5
51227;BME280;42714;48.260;10.980;2024-03-02T15:46:44;956.7;;;12.5;62.5
51227;BME280;42714;48.260;10.980;2024-03-02T15:51:45;956.7;;;12.1;64.6
51227;BME280;42714;48.260;10.980;2024-03-02T15:56:46;956.7;;;11.7;66.1
51227;BME280;42714;48.260;10.980;2024-03-02T16:01:47;956.7;;;11.7;67.3
51227;BME280;42714;48.260;10.980;2024-03-02T16:06:48;956.7;;;11.5;68.2
51227;BME280;42714;48.260;10.980;2024-03-02T16:11:49;956.6;;;11.4;70.4
51227;BME280;42714;48.260;10.980;2024-03-02T16:16:50;956.6;;;11.2;72.0
51227;BME280;42714;48.260;10.980;2024-03-02T16:21:51;956.6;;;10.9;73.7
51227;BME280;42714;48.260;10.980;2024-03-02T16:26:52;956.6;;;10.8;75.1
51227;BME280;42714;48.260;10.980;2024-03-02T16:31:53;956.5;;;10.7;76.2
51227;BME280;42714;48.260;10.980;2024-03-02T16:36:54;956.5;;;10.5;77.3
51227;BME280;42714;48.260;10.980;2024-03-02T16:41:55;956.5;;;10.4;78.5
51227;BME280;42714;48.260;10.980;2024-03-02T16:46:56;956.6;;;10.2;79.7
51227;BME280;42714;48.260;10.980;2024-03-02T16:51:57;956.7;;;10.0;80.9
51227;BME280;42714;48.260;10.980;2024-03-02T16:56:58;956.7;;;9.9;82.0
51227;BME280;42714;48.260;10.980;2024-03-02T17:01:59;956.7;;;9.8;82.7
51227;BME280;42714;48.260;10.980;2024-03-02T17:07:00;956.8;;;9.6;83.7
51227;BME280;42714;48.260;10.980;2024-03-02T17:12:01;956.8;;;9.5;84.2
51227;BME280;42714;48.260;10.980;2024-03-02T17:17:02;956.8;;;9.5;84.5
51227;BME280;42714;48.260;10.980;2024-03-02T17:22:03;956.7;;;9.4;84.5
51227;BME280;42714;48.260;10.980;2024-03-02T17:27:04;956.6;;;9.3;85.0
51227;BME280;42714;48.260;10.980;2024-03-02T17:32:05;956.6;;;9.2;85.5
51227;BME280;42714;48.260;10.980;2024-03-02T17:37:06;956.6;;;9.1;86.3
51227;BME280;42714;48.260;10.980;2024-03-02T17:42:07;956.7;;;9.1;87.0
51227;BME280;42714;48.260;10.980;2024-03-02T17:47:08;956.6;;;9.1;87.5
51227;BME280;42714;48.260;10.980;2024-03-02T17:52:09;956.6;;;9.1;88.1
51227;BME280;42714;48.260;10.980;2024-03-02T17:57:10;956.6;;;9.1;88.7
51227;BME280;42714;48.260;10.980;2024-03-02T18:02:11;956.6;;;9.0;89.2
51227;BME280;42714;48.260;10.980;2024-03-02T18:07:12;956.6;;;9.0;89.6
51227;BME280;42714;48.260;10.980;2024-03-02T18:12:13;956.6;;;8.9;90.1
51227;BME280;42714;48.260;10.980;2024-03-02T18:17:14;956.6;;;8.8;90.7
51227;BME280;42714;48.260;10.980;2024-03-02T18:22:16;956.6;;;8.7;91.4
51227;BME280;42714;48.260;10.980;2024-03-02T18:27:16;956.6;;;8.6;91.9
51227;BME280;42714;48.260;10.980;2024-03-02T18:32:17;956.7;;;8.6;92.8
51227;BME280;42714;48.260;10.980;2024-03-02T18:37:18;956.8;;;8.4;93.3
51227;BME280;42714;48.260;10.980;2024-03-02T18:42:19;956.8;;;8.4;93.7
51227;BME280;42714;48.260;10.980;2024-03-02T18:47:20;956.8;;;8.3;94.2
51227;BME280;42714;48.260;10.980;2024-03-02T18:52:21;956.9;;;8.2;94.7
51227;BME280;42714;48.260;10.980;2024-03-02T18:57:22;956.9;;;8.1;95.2
51227;BME280;42714;48.260;10.980;2024-03-02T19:02:23;956.8;;;8.0;95.6
51227;BME280;42714;48.260;10.980;2024-03-02T19:07:24;956.7;;;7.9;96.3
51227;BME280;42714;48.260;10.980;2024-03-02T19:12:25;956.7;;;7.8;96.8
51227;BME280;42714;48.260;10.980;2024-03-02T19:17:26;956.6;;;7.8;97.3
51227;BME280;42714;48.260;10.980;2024-03-02T19:22:27;956.6;;;7.7;97.5
51227;BME280;42714;48.260;10.980;2024-03-02T19:27:28;956.5;;;7.7;98.0
51227;BME280;42714;48.260;10.980;2024-03-02T19:32:29;956.5;;;7.6;98.4
51227;BME280;42714;48.260;10.980;2024-03-02T19:37:30;956.4;;;7.5;98.8
51227;BME280;42714;48.260;10.980;2024-03-02T19:42:31;956.4;;;7.5;99.3
51227;BME280;42714;48.260;10.980;2024-03-02T19:47:32;956.4;;;7.4;99.5
51227;BME280;42714;48.260;10.980;2024-03-02T19:52:33;956.4;;;7.4;99.9
51227;BME280;42714;48.260;10.980;2024-03-02T19:57:35;956.3;;;7.4;100.0
51227;BME280;42714;48.260;10.980;2024-03-02T20:02:35;956.2;;;7.3;100.0
51227;BME280;42714;48.260;10.980;2024-03-02T20:07:37;956.2;;;7.3;100.0
51227;BME280;42714;48.260;10.980;2024-03-02T20:12:37;956.1;;;7.2;100.0
51227;BME280;42714;48.260;10.980;2024-03-02T20:17:38;956.2;;;7.1;100.0
51227;BME280;42714;48.260;10.980;2024-03-02T20:22:39;956.2;;;7.0;100.0
51227;BME280;42714;48.260;10.980;2024-03-02T20:27:41;956.2;;;7.0;100.0
51227;BME280;42714;48.260;10.980;2024-03-02T20:32:41;956.1;;;7.0;100.0
51227;BME280;42714;48.260;10.980;2024-03-02T20:37:43;956.1;;;6.9;100.0
51227;BME280;42714;48.260;10.980;2024-03-02T20:42:44;956.0;;;6.8;100.0
51227;BME280;42714;48.260;10.980;2024-03-02T20:47:44;955.9;;;6.9;100.0
51227;BME280;42714;48.260;10.980;2024-03-02T20:52:45;955.8;;;6.9;100.0
51227;BME280;42714;48.260;10.980;2024-03-02T20:57:47;955.8;;;6.8;100.0
51227;BME280;42714;48.260;10.980;2024-03-02T21:02:48;955.6;;;6.7;100.0
51227;BME280;42714;48.260;10.980;2024-03-02T21:07:49;955.6;;;6.6;100.0
51227;BME280;42714;48.260;10.980;2024-03-02T21:12:50;955.5;;;6.5;100.0
51227;BME280;42714;48.260;10.980;2024-03-02T21:17:51;955.5;;;6.5;100.0
51227;BME280;42714;48.260;10.980;2024-03-02T21:22:52;955.5;;;6.4;100.0
51227;BME280;42714;48.260;10.980;2024-03-02T21:27:53;955.6;;;6.4;100.0
51227;BME280;42714;48.260;10.980;2024-03-02T21:32:54;955.6;;;6.4;100.0
51227;BME280;42714;48.260;10.980;2024-03-02T21:37:55;955.6;;;6.3;100.0
51227;BME280;42714;48.260;10.980;2024-03-02T21:42:56;955.5;;;6.2;100.0
51227;BME280;42714;48.260;10.980;2024-03-02T21:47:57;955.6;;;6.1;100.0
51227;BME280;42714;48.260;10.980;2024-03-02T21:52:58;955.5;;;6.1;100.0
51227;BME280;42714;48.260;10.980;2024-03-02T21:57:59;955.4;;;6.1;100.0
51227;BME280;42714;48.260;10.980;2024-03-02T22:03:00;955.4;;;6.0;100.0
51227;BME280;42714;48.260;10.980;2024-03-02T22:08:01;955.4;;;6.1;100.0
51227;BME280;42714;48.260;10.980;2024-03-02T22:13:02;955.4;;;6.0;100.0
51227;BME280;42714;48.260;10.980;2024-03-02T22:18:03;955.3;;;5.9;100.0
51227;BME280;42714;48.260;10.980;2024-03-02T22:23:04;955.3;;;5.9;100.0
51227;BME280;42714;48.260;10.980;2024-03-02T22:28:05;955.3;;;5.9;100.0
51227;BME280;42714;48.260;10.980;2024-03-02T22:33:06;955.2;;;5.8;100.0
51227;BME280;42714;48.260;10.980;2024-03-02T22:38:07;955.3;;;5.8;100.0
51227;BME280;42714;48.260;10.980;2024-03-02T22:43:08;955.3;;;5.7;100.0
51227;BME280;42714;48.260;10.980;2024-03-02T22:48:09;955.3;;;5.7;100.0
51227;BME280;42714;48.260;10.980;2024-03-02T22:53:10;955.3;;;5.8;100.0
51227;BME280;42714;48.260;10.980;2024-03-02T22:58:11;955.3;;;5.7;100.0
51227;BME280;42714;48.260;10.980;2024-03-02T23:03:12;955.4;;;5.6;100.0
51227;BME280;42714;48.260;10.980;2024-03-02T23:08:13;955.3;;;5.6;100.0
51227;BME280;42714;48.260;10.980;2024-03-02T23:13:14;955.3;;;5.5;100.0
51227;BME280;42714;48.260;10.980;2024-03-02T23:18:15;955.3;;;5.4;100.0
51227;BME280;42714;48.260;10.980;2024-03-02T23:23:16;955.4;;;5.3;100.0
51227;BME280;42714;48.260;10.980;2024-03-02T23:28:17;955.4;;;5.2;100.0
51227;BME280;42714;48.260;10.980;2024-03-02T23:33:18;955.3;;;5.1;100.0
51227;BME280;42714;48.260;10.980;2024-03-02T23:38:19;955.3;;;5.0;100.0
51227;BME280;42714;48.260;10.980;2024-03-02T23:43:20;955.4;;;5.0;100.0
51227;BME280;42714;48.260;10.980;2024-03-02T23:48:21;955.3;;;4.9;100.0
51227;BME280;42714;48.260;10.980;2024-03-02T23:53:22;955.3;;;4.8;100.0
51227;BME280;42714;48.260;10.980;2024-03-02T23:58:23;955.3;;;4.7;100.0
